sensor_id;sensor_type;location;lat;lon;timestamp;pressure;altitude;pressure_sealevel;temperature;humidity
58686;BME280;44465;53.206;-6.106;2023-11-19T00:01:31;99891.13;;;21.11;53.35
58686;BME280;44465;53.206;-6.106;2023-11-19T00:03:58;99883.94;;;21.12;53.39
58686;BME280;44465;53.206;-6.106;2023-11-19T00:06:23;99891.31;;;21.08;53.35
58686;BME280;44465;53.206;-6.106;2023-11-19T00:08:50;99907.81;;;21.15;53.13
58686;BME280;44465;53.206;-6.106;2023-11-19T00:11:16;99907.81;;;21.15;53.17
58686;BME280;44465;53.206;-6.106;2023-11-19T00:13:41;99906.97;;;21.14;52.75
58686;BME280;44465;53.206;-6.106;2023-11-19T00:18:33;99903.75;;;21.09;53.20
58686;BME280;44465;53.206;-6.106;2023-11-19T00:20:59;99887.69;;;21.09;53.19
58686;BME280;44465;53.206;-6.106;2023-11-19T00:23:24;99888.78;;;21.06;53.16
58686;BME280;44465;53.206;-6.106;2023-11-19T00:25:49;99888.56;;;21.10;53.24
58686;BME280;44465;53.206;-6.106;2023-11-19T00:28:15;99891.31;;;21.08;53.10
58686;BME280;44465;53.206;-6.106;2023-11-19T00:30:40;99883.41;;;21.06;53.15
58686;BME280;44465;53.206;-6.106;2023-11-19T00:33:06;99891.97;;;21.12;53.11
58686;BME280;44465;53.206;-6.106;2023-11-19T00:35:31;99880.94;;;21.03;53.12
58686;BME280;44465;53.206;-6.106;2023-11-19T00:37:58;99876.47;;;21.04;53.17
58686;BME280;44465;53.206;-6.106;2023-11-19T00:40:23;99897.31;;;21.12;53.06
58686;BME280;44465;53.206;-6.106;2023-11-19T00:42:49;99900.31;;;21.07;52.91
58686;BME280;44465;53.206;-6.106;2023-11-19T00:47:40;99897.56;;;21.08;53.08
58686;BME280;44465;53.206;-6.106;2023-11-19T00:50:07;99888.78;;;21.06;52.91
58686;BME280;44465;53.206;-6.106;2023-11-19T00:52:35;99894.66;;;21.12;52.90
58686;BME280;44465;53.206;-6.106;2023-11-19T00:55:02;99871.75;;;21.07;53.18
58686;BME280;44465;53.206;-6.106;2023-11-19T00:57:28;99863.09;;;21.04;53.13
58686;BME280;44465;53.206;-6.106;2023-11-19T01:02:19;99870.56;;;21.12;53.01
58686;BME280;44465;53.206;-6.106;2023-11-19T01:04:44;99860.28;;;21.05;53.18
58686;BME280;44465;53.206;-6.106;2023-11-19T01:07:10;99872.72;;;21.06;53.02
58686;BME280;44465;53.206;-6.106;2023-11-19T01:09:38;99873.47;;;21.08;53.06
58686;BME280;44465;53.206;-6.106;2023-11-19T01:12:04;99874.94;;;21.13;52.91
58686;BME280;44465;53.206;-6.106;2023-11-19T01:14:30;99872.25;;;21.13;52.99
58686;BME280;44465;53.206;-6.106;2023-11-19T01:16:56;99869.59;;;21.13;52.85
58686;BME280;44465;53.206;-6.106;2023-11-19T01:19:22;99866.91;;;21.13;52.88
58686;BME280;44465;53.206;-6.106;2023-11-19T01:21:51;99850.75;;;21.01;52.92
58686;BME280;44465;53.206;-6.106;2023-11-19T01:24:17;99852.13;;;21.07;53.15
58686;BME280;44465;53.206;-6.106;2023-11-19T01:26:43;99844.09;;;21.07;52.95
58686;BME280;44465;53.206;-6.106;2023-11-19T01:29:13;99855.78;;;21.06;53.09
58686;BME280;44465;53.206;-6.106;2023-11-19T01:31:41;99845.72;;;21.10;53.01
58686;BME280;44465;53.206;-6.106;2023-11-19T01:34:06;99834.28;;;21.07;52.88
58686;BME280;44465;53.206;-6.106;2023-11-19T01:36:32;99838.13;;;21.03;53.10
58686;BME280;44465;53.206;-6.106;2023-11-19T01:38:57;99830.09;;;21.03;53.17
58686;BME280;44465;53.206;-6.106;2023-11-19T01:41:23;99825.69;;;21.02;53.13
58686;BME280;44465;53.206;-6.106;2023-11-19T01:43:50;99836.50;;;21.14;53.10
58686;BME280;44465;53.206;-6.106;2023-11-19T01:46:16;99842.09;;;21.11;53.48
58686;BME280;44465;53.206;-6.106;2023-11-19T01:48:46;99821.31;;;21.01;53.00
58686;BME280;44465;53.206;-6.106;2023-11-19T01:51:15;99842.94;;;21.11;53.23
58686;BME280;44465;53.206;-6.106;2023-11-19T01:53:42;99838.22;;;21.15;53.16
58686;BME280;44465;53.206;-6.106;2023-11-19T01:56:09;99826.25;;;21.07;53.24
58686;BME280;44465;53.206;-6.106;2023-11-19T01:58:38;99824.31;;;21.10;53.33
58686;BME280;44465;53.206;-6.106;2023-11-19T02:01:05;99841.84;;;21.14;53.14
58686;BME280;44465;53.206;-6.106;2023-11-19T02:03:33;99835.75;;;21.12;52.93
58686;BME280;44465;53.206;-6.106;2023-11-19T02:06:00;99837.25;;;21.16;53.24
58686;BME280;44465;53.206;-6.106;2023-11-19T02:08:26;99847.22;;;21.14;53.38
58686;BME280;44465;53.206;-6.106;2023-11-19T02:10:52;99841.84;;;21.14;52.93
58686;BME280;44465;53.206;-6.106;2023-11-19T02:13:20;99843.56;;;21.15;53.19
58686;BME280;44465;53.206;-6.106;2023-11-19T02:15:45;99847.13;;;21.15;53.21
58686;BME280;44465;53.206;-6.106;2023-11-19T02:18:21;99832.03;;;21.14;53.12
58686;BME280;44465;53.206;-6.106;2023-11-19T02:20:50;99836.41;;;21.15;53.11
58686;BME280;44465;53.206;-6.106;2023-11-19T02:23:16;99831.91;;;21.16;53.09
58686;BME280;44465;53.206;-6.106;2023-11-19T02:28:46;99818.22;;;21.07;53.01
58686;BME280;44465;53.206;-6.106;2023-11-19T02:31:12;99825.78;;;21.14;53.00
58686;BME280;44465;53.206;-6.106;2023-11-19T02:36:04;99801.59;;;21.02;53.15
58686;BME280;44465;53.206;-6.106;2023-11-19T02:38:33;99804.81;;;21.07;53.13
58686;BME280;44465;53.206;-6.106;2023-11-19T02:40:58;99803.94;;;21.07;53.23
58686;BME280;44465;53.206;-6.106;2023-11-19T02:43:23;99800.31;;;21.08;53.17
58686;BME280;44465;53.206;-6.106;2023-11-19T02:45:49;99771.94;;;21.05;53.23
58686;BME280;44465;53.206;-6.106;2023-11-19T02:48:15;99789.53;;;21.10;53.17
58686;BME280;44465;53.206;-6.106;2023-11-19T02:50:44;99773.03;;;21.03;52.84
58686;BME280;44465;53.206;-6.106;2023-11-19T02:53:11;99776.97;;;21.10;53.43
58686;BME280;44465;53.206;-6.106;2023-11-19T02:55:38;99767.78;;;21.01;53.41
58686;BME280;44465;53.206;-6.106;2023-11-19T02:58:06;99795.50;;;21.13;52.99
58686;BME280;44465;53.206;-6.106;2023-11-19T03:00:39;99781.50;;;21.10;53.31
58686;BME280;44465;53.206;-6.106;2023-11-19T03:05:47;99789.84;;;21.05;52.98
58686;BME280;44465;53.206;-6.106;2023-11-19T03:08:16;99792.19;;;21.10;53.03
58686;BME280;44465;53.206;-6.106;2023-11-19T03:10:42;99786.09;;;21.07;53.10
58686;BME280;44465;53.206;-6.106;2023-11-19T03:13:12;99784.50;;;21.05;53.02
58686;BME280;44465;53.206;-6.106;2023-11-19T03:15:39;99789.59;;;21.08;52.95
58686;BME280;44465;53.206;-6.106;2023-11-19T03:18:05;99797.75;;;21.06;52.85
58686;BME280;44465;53.206;-6.106;2023-11-19T03:20:30;99766.38;;;20.96;52.90
58686;BME280;44465;53.206;-6.106;2023-11-19T03:22:56;99778.16;;;21.06;52.85
58686;BME280;44465;53.206;-6.106;2023-11-19T03:25:25;99775.47;;;21.06;52.79
58686;BME280;44465;53.206;-6.106;2023-11-19T03:27:52;99784.16;;;21.10;52.94
58686;BME280;44465;53.206;-6.106;2023-11-19T03:30:18;99773.13;;;21.01;53.15
58686;BME280;44465;53.206;-6.106;2023-11-19T03:32:46;99790.47;;;21.08;53.01
58686;BME280;44465;53.206;-6.106;2023-11-19T03:35:11;99772.16;;;21.02;52.98
58686;BME280;44465;53.206;-6.106;2023-11-19T03:37:37;99777.94;;;21.09;52.99
58686;BME280;44465;53.206;-6.106;2023-11-19T03:40:05;99783.41;;;21.07;53.03
58686;BME280;44465;53.206;-6.106;2023-11-19T03:42:31;99765.84;;;21.03;53.04
58686;BME280;44465;53.206;-6.106;2023-11-19T03:44:57;99762.00;;;21.07;53.27
58686;BME280;44465;53.206;-6.106;2023-11-19T03:47:23;99763.91;;;21.05;52.85
58686;BME280;44465;53.206;-6.106;2023-11-19T03:49:49;99741.25;;;20.98;52.92
58686;BME280;44465;53.206;-6.106;2023-11-19T03:52:15;99764.66;;;21.07;52.94
58686;BME280;44465;53.206;-6.106;2023-11-19T03:54:42;99736.53;;;21.02;53.00
58686;BME280;44465;53.206;-6.106;2023-11-19T03:57:08;99731.28;;;21.00;52.93
58686;BME280;44465;53.206;-6.106;2023-11-19T03:59:35;99736.53;;;21.02;52.73
58686;BME280;44465;53.206;-6.106;2023-11-19T04:02:01;99744.56;;;21.02;53.01
58686;BME280;44465;53.206;-6.106;2023-11-19T04:04:28;99728.16;;;21.06;53.07
58686;BME280;44465;53.206;-6.106;2023-11-19T04:06:55;99712.56;;;21.00;52.75
58686;BME280;44465;53.206;-6.106;2023-11-19T04:09:21;99725.50;;;21.06;53.10
58686;BME280;44465;53.206;-6.106;2023-11-19T04:11:46;99713.63;;;20.98;52.71
58686;BME280;44465;53.206;-6.106;2023-11-19T04:14:15;99726.25;;;21.08;53.13
58686;BME280;44465;53.206;-6.106;2023-11-19T04:16:43;99710.19;;;21.08;53.22
58686;BME280;44465;53.206;-6.106;2023-11-19T04:19:09;99701.59;;;21.03;53.01
58686;BME280;44465;53.206;-6.106;2023-11-19T04:21:35;99710.19;;;21.08;53.09
58686;BME280;44465;53.206;-6.106;2023-11-19T04:24:00;99703.44;;;21.03;52.96
58686;BME280;44465;53.206;-6.106;2023-11-19T04:26:26;99710.19;;;21.08;52.89
58686;BME280;44465;53.206;-6.106;2023-11-19T04:28:51;99683.00;;;21.02;52.96
58686;BME280;44465;53.206;-6.106;2023-11-19T04:31:19;99696.03;;;21.06;53.00
58686;BME280;44465;53.206;-6.106;2023-11-19T04:33:44;99696.50;;;21.00;53.22
58686;BME280;44465;53.206;-6.106;2023-11-19T04:36:10;99689.44;;;20.99;52.95
58686;BME280;44465;53.206;-6.106;2023-11-19T04:38:37;99696.50;;;21.00;53.23
58686;BME280;44465;53.206;-6.106;2023-11-19T04:41:04;99691.78;;;21.04;52.79
58686;BME280;44465;53.206;-6.106;2023-11-19T04:43:31;99687.72;;;20.98;53.18
58686;BME280;44465;53.206;-6.106;2023-11-19T04:45:56;99703.19;;;21.06;53.05
58686;BME280;44465;53.206;-6.106;2023-11-19T04:48:23;99689.72;;;21.07;53.11
58686;BME280;44465;53.206;-6.106;2023-11-19T04:50:49;99704.81;;;21.08;53.10
58686;BME280;44465;53.206;-6.106;2023-11-19T04:53:16;99703.09;;;21.07;53.13
58686;BME280;44465;53.206;-6.106;2023-11-19T04:55:42;99711.34;;;21.04;53.05
58686;BME280;44465;53.206;-6.106;2023-11-19T04:58:08;99704.53;;;21.00;53.14
58686;BME280;44465;53.206;-6.106;2023-11-19T05:00:33;99700.84;;;21.01;52.96
58686;BME280;44465;53.206;-6.106;2023-11-19T05:02:58;99710.38;;;21.05;52.70
58686;BME280;44465;53.206;-6.106;2023-11-19T05:05:24;99695.63;;;21.00;52.72
58686;BME280;44465;53.206;-6.106;2023-11-19T05:07:49;99705.88;;;21.06;52.76
58686;BME280;44465;53.206;-6.106;2023-11-19T05:10:15;99696.50;;;21.00;53.10
58686;BME280;44465;53.206;-6.106;2023-11-19T05:12:40;99694.78;;;20.99;53.15
58686;BME280;44465;53.206;-6.106;2023-11-19T05:15:06;99697.13;;;21.04;53.03
58686;BME280;44465;53.206;-6.106;2023-11-19T05:17:32;99712.44;;;21.02;52.86
58686;BME280;44465;53.206;-6.106;2023-11-19T05:19:58;99708.88;;;21.01;53.07
58686;BME280;44465;53.206;-6.106;2023-11-19T05:22:23;99706.34;;;21.00;52.69
58686;BME280;44465;53.206;-6.106;2023-11-19T05:24:49;99698.63;;;20.95;52.88
58686;BME280;44465;53.206;-6.106;2023-11-19T05:27:14;99711.56;;;21.01;52.98
58686;BME280;44465;53.206;-6.106;2023-11-19T05:29:40;99715.97;;;21.02;52.70
58686;BME280;44465;53.206;-6.106;2023-11-19T05:32:07;99700.03;;;21.01;52.80
58686;BME280;44465;53.206;-6.106;2023-11-19T05:34:32;99696.50;;;21.00;52.75
58686;BME280;44465;53.206;-6.106;2023-11-19T05:36:58;99698.19;;;21.01;52.74
58686;BME280;44465;53.206;-6.106;2023-11-19T05:39:23;99700.22;;;20.98;52.63
58686;BME280;44465;53.206;-6.106;2023-11-19T05:41:49;99695.63;;;21.00;52.82
58686;BME280;44465;53.206;-6.106;2023-11-19T05:44:15;99693.91;;;20.99;52.55
58686;BME280;44465;53.206;-6.106;2023-11-19T05:46:41;99669.53;;;20.90;52.71
58686;BME280;44465;53.206;-6.106;2023-11-19T05:49:11;99677.00;;;20.98;52.66
58686;BME280;44465;53.206;-6.106;2023-11-19T05:51:38;99670.38;;;20.91;52.40
58686;BME280;44465;53.206;-6.106;2023-11-19T05:54:06;99675.50;;;20.94;52.56
58686;BME280;44465;53.206;-6.106;2023-11-19T05:56:33;99675.50;;;20.94;52.46
58686;BME280;44465;53.206;-6.106;2023-11-19T05:58:59;99678.94;;;20.96;52.41
58686;BME280;44465;53.206;-6.106;2023-11-19T06:01:32;99674.75;;;20.92;52.72
58686;BME280;44465;53.206;-6.106;2023-11-19T06:03:58;99676.59;;;20.91;52.55
58686;BME280;44465;53.206;-6.106;2023-11-19T06:06:23;99680.13;;;20.92;52.46
58686;BME280;44465;53.206;-6.106;2023-11-19T06:08:49;99679.78;;;20.97;52.22
58686;BME280;44465;53.206;-6.106;2023-11-19T06:11:16;99684.28;;;20.96;52.50
58686;BME280;44465;53.206;-6.106;2023-11-19T06:13:46;99669.41;;;20.92;52.52
58686;BME280;44465;53.206;-6.106;2023-11-19T06:16:13;99665.03;;;20.91;52.30
58686;BME280;44465;53.206;-6.106;2023-11-19T06:18:39;99673.81;;;20.93;52.57
58686;BME280;44465;53.206;-6.106;2023-11-19T06:21:06;99663.97;;;20.94;52.15
58686;BME280;44465;53.206;-6.106;2023-11-19T06:23:32;99655.41;;;20.88;52.57
58686;BME280;44465;53.206;-6.106;2023-11-19T06:25:57;99656.28;;;20.89;52.40
58686;BME280;44465;53.206;-6.106;2023-11-19T06:28:23;99643.88;;;20.88;52.35
58686;BME280;44465;53.206;-6.106;2023-11-19T06:30:48;99657.13;;;20.89;52.41
58686;BME280;44465;53.206;-6.106;2023-11-19T06:33:14;99663.97;;;20.94;52.35
58686;BME280;44465;53.206;-6.106;2023-11-19T06:35:39;99657.25;;;20.88;52.37
58686;BME280;44465;53.206;-6.106;2023-11-19T06:38:05;99662.25;;;20.92;52.40
58686;BME280;44465;53.206;-6.106;2023-11-19T06:40:32;99655.31;;;20.90;52.60
58686;BME280;44465;53.206;-6.106;2023-11-19T06:42:57;99648.47;;;20.86;52.49
58686;BME280;44465;53.206;-6.106;2023-11-19T06:45:23;99635.94;;;20.86;52.43
58686;BME280;44465;53.206;-6.106;2023-11-19T06:47:48;99645.34;;;20.92;52.27
58686;BME280;44465;53.206;-6.106;2023-11-19T06:50:15;99628.25;;;20.82;52.67
58686;BME280;44465;53.206;-6.106;2023-11-19T06:52:41;99652.84;;;20.87;52.36
58686;BME280;44465;53.206;-6.106;2023-11-19T06:55:06;99656.78;;;20.94;52.45
58686;BME280;44465;53.206;-6.106;2023-11-19T06:57:32;99638.94;;;20.82;52.45
58686;BME280;44465;53.206;-6.106;2023-11-19T06:59:58;99645.56;;;20.89;52.58
58686;BME280;44465;53.206;-6.106;2023-11-19T07:02:24;99638.59;;;20.86;52.60
58686;BME280;44465;53.206;-6.106;2023-11-19T07:04:50;99647.28;;;20.90;52.41
58686;BME280;44465;53.206;-6.106;2023-11-19T07:07:15;99641.28;;;20.86;52.37
58686;BME280;44465;53.206;-6.106;2023-11-19T07:09:41;99644.28;;;20.82;52.41
58686;BME280;44465;53.206;-6.106;2023-11-19T07:12:06;99650.94;;;20.89;52.48
58686;BME280;44465;53.206;-6.106;2023-11-19T07:14:32;99639.56;;;20.85;52.42
58686;BME280;44465;53.206;-6.106;2023-11-19T07:16:57;99649.09;;;20.89;52.71
58686;BME280;44465;53.206;-6.106;2023-11-19T07:19:23;99654.44;;;20.89;52.55
58686;BME280;44465;53.206;-6.106;2023-11-19T07:21:48;99632.13;;;20.77;52.36
58686;BME280;44465;53.206;-6.106;2023-11-19T07:24:14;99645.34;;;20.92;52.45
58686;BME280;44465;53.206;-6.106;2023-11-19T07:26:44;99643.63;;;20.91;52.28
58686;BME280;44465;53.206;-6.106;2023-11-19T07:29:09;99646.63;;;20.86;52.40
58686;BME280;44465;53.206;-6.106;2023-11-19T07:31:35;99631.44;;;20.87;52.43
58686;BME280;44465;53.206;-6.106;2023-11-19T07:34:01;99639.97;;;20.92;52.50
58686;BME280;44465;53.206;-6.106;2023-11-19T07:36:26;99638.84;;;20.83;52.51
58686;BME280;44465;53.206;-6.106;2023-11-19T07:38:52;99640.66;;;20.83;52.51
58686;BME280;44465;53.206;-6.106;2023-11-19T07:41:18;99660.66;;;20.90;52.28
58686;BME280;44465;53.206;-6.106;2023-11-19T07:43:45;99650.19;;;20.87;52.57
58686;BME280;44465;53.206;-6.106;2023-11-19T07:46:12;99654.56;;;20.88;52.61
58686;BME280;44465;53.206;-6.106;2023-11-19T07:48:39;99657.25;;;20.88;52.50
58686;BME280;44465;53.206;-6.106;2023-11-19T07:51:05;99654.78;;;20.85;52.57
58686;BME280;44465;53.206;-6.106;2023-11-19T07:53:30;99638.72;;;20.85;52.52
58686;BME280;44465;53.206;-6.106;2023-11-19T07:55:56;99633.38;;;20.85;52.67
58686;BME280;44465;53.206;-6.106;2023-11-19T07:58:21;99640.22;;;20.89;52.70
58686;BME280;44465;53.206;-6.106;2023-11-19T08:00:47;99620.75;;;20.87;52.66
58686;BME280;44465;53.206;-6.106;2023-11-19T08:03:12;99634.88;;;20.89;52.39
58686;BME280;44465;53.206;-6.106;2023-11-19T08:05:38;99624.38;;;20.86;52.57
58686;BME280;44465;53.206;-6.106;2023-11-19T08:08:04;99630.25;;;20.91;52.54
58686;BME280;44465;53.206;-6.106;2023-11-19T08:10:30;99639.13;;;20.91;52.57
58686;BME280;44465;53.206;-6.106;2023-11-19T08:12:55;99641.94;;;20.90;52.56
58686;BME280;44465;53.206;-6.106;2023-11-19T08:15:20;99642.78;;;20.90;52.32
58686;BME280;44465;53.206;-6.106;2023-11-19T08:17:46;99647.28;;;20.90;52.71
58686;BME280;44465;53.206;-6.106;2023-11-19T08:20:12;99648.25;;;20.89;52.42
58686;BME280;44465;53.206;-6.106;2023-11-19T08:22:39;99645.03;;;20.84;52.32
58686;BME280;44465;53.206;-6.106;2023-11-19T08:25:07;99652.84;;;20.87;52.33
58686;BME280;44465;53.206;-6.106;2023-11-19T08:27:33;99666.13;;;20.88;52.47
58686;BME280;44465;53.206;-6.106;2023-11-19T08:29:59;99650.94;;;20.89;52.49
58686;BME280;44465;53.206;-6.106;2023-11-19T08:32:27;99650.94;;;20.76;52.50
58686;BME280;44465;53.206;-6.106;2023-11-19T08:34:53;99662.06;;;20.83;52.58
58686;BME280;44465;53.206;-6.106;2023-11-19T08:37:19;99662.81;;;20.85;52.35
58686;BME280;44465;53.206;-6.106;2023-11-19T08:39:47;99650.06;;;20.88;52.47
58686;BME280;44465;53.206;-6.106;2023-11-19T08:42:12;99626.66;;;20.79;52.55
58686;BME280;44465;53.206;-6.106;2023-11-19T08:44:38;99640.66;;;20.83;52.38
58686;BME280;44465;53.206;-6.106;2023-11-19T08:47:04;99650.06;;;20.88;52.53
58686;BME280;44465;53.206;-6.106;2023-11-19T08:49:30;99636.19;;;20.83;52.32
58686;BME280;44465;53.206;-6.106;2023-11-19T08:51:55;99646.97;;;20.82;52.73
58686;BME280;44465;53.206;-6.106;2023-11-19T08:54:20;99655.88;;;20.82;52.46
58686;BME280;44465;53.206;-6.106;2023-11-19T08:56:48;99634.34;;;20.84;52.57
58686;BME280;44465;53.206;-6.106;2023-11-19T08:59:13;99653.94;;;20.84;52.38
58686;BME280;44465;53.206;-6.106;2023-11-19T09:01:40;99658.22;;;20.87;52.49
58686;BME280;44465;53.206;-6.106;2023-11-19T09:04:06;99659.28;;;20.84;52.31
58686;BME280;44465;53.206;-6.106;2023-11-19T09:06:32;99661.63;;;20.89;52.65
58686;BME280;44465;53.206;-6.106;2023-11-19T09:08:57;99669.75;;;20.87;52.33
58686;BME280;44465;53.206;-6.106;2023-11-19T09:11:26;99667.94;;;20.88;52.70
58686;BME280;44465;53.206;-6.106;2023-11-19T09:13:52;99666.22;;;20.87;52.34
58686;BME280;44465;53.206;-6.106;2023-11-19T09:16:18;99665.28;;;20.88;52.75
58686;BME280;44465;53.206;-6.106;2023-11-19T09:18:43;99674.03;;;20.90;52.59
58686;BME280;44465;53.206;-6.106;2023-11-19T09:21:10;99663.97;;;20.81;52.54
58686;BME280;44465;53.206;-6.106;2023-11-19T09:23:36;99649.56;;;20.83;52.66
58686;BME280;44465;53.206;-6.106;2023-11-19T09:26:05;99679.41;;;20.90;53.03
58686;BME280;44465;53.206;-6.106;2023-11-19T09:28:31;99670.63;;;20.88;52.61
58686;BME280;44465;53.206;-6.106;2023-11-19T09:30:56;99674.69;;;20.81;52.47
58686;BME280;44465;53.206;-6.106;2023-11-19T09:33:22;99687.63;;;20.87;52.68
58686;BME280;44465;53.206;-6.106;2023-11-19T09:35:47;99679.06;;;20.82;52.64
58686;BME280;44465;53.206;-6.106;2023-11-19T09:38:15;99673.00;;;20.80;52.38
58686;BME280;44465;53.206;-6.106;2023-11-19T09:40:40;99695.66;;;20.87;52.74
58686;BME280;44465;53.206;-6.106;2023-11-19T09:43:07;99695.53;;;20.88;52.68
58686;BME280;44465;53.206;-6.106;2023-11-19T09:45:47;99683.25;;;20.86;52.46
58686;BME280;44465;53.206;-6.106;2023-11-19T09:48:16;99704.53;;;20.87;52.51
58686;BME280;44465;53.206;-6.106;2023-11-19T09:50:42;99706.16;;;20.90;52.56
58686;BME280;44465;53.206;-6.106;2023-11-19T09:53:08;99714.91;;;20.92;52.51
58686;BME280;44465;53.206;-6.106;2023-11-19T09:55:34;99691.50;;;20.83;52.53
58686;BME280;44465;53.206;-6.106;2023-11-19T09:58:01;99706.25;;;20.88;52.67
58686;BME280;44465;53.206;-6.106;2023-11-19T10:00:27;99708.09;;;20.88;52.69
58686;BME280;44465;53.206;-6.106;2023-11-19T10:02:53;99724.78;;;20.91;52.60
58686;BME280;44465;53.206;-6.106;2023-11-19T10:05:21;99731.22;;;20.89;52.35
58686;BME280;44465;53.206;-6.106;2023-11-19T10:07:49;99713.78;;;20.83;52.43
58686;BME280;44465;53.206;-6.106;2023-11-19T10:10:14;99717.41;;;20.82;52.58
58686;BME280;44465;53.206;-6.106;2023-11-19T10:12:45;99729.25;;;20.91;52.67
58686;BME280;44465;53.206;-6.106;2023-11-19T10:15:19;99728.53;;;20.89;52.63
58686;BME280;44465;53.206;-6.106;2023-11-19T10:17:46;99738.69;;;20.84;52.52
58686;BME280;44465;53.206;-6.106;2023-11-19T10:20:11;99747.25;;;20.89;52.69
58686;BME280;44465;53.206;-6.106;2023-11-19T10:22:37;99729.06;;;20.81;52.53
58686;BME280;44465;53.206;-6.106;2023-11-19T10:25:04;99747.25;;;20.89;52.73
58686;BME280;44465;53.206;-6.106;2023-11-19T10:27:30;99752.81;;;20.86;52.48
58686;BME280;44465;53.206;-6.106;2023-11-19T10:29:59;99761.47;;;20.89;52.58
58686;BME280;44465;53.206;-6.106;2023-11-19T10:32:25;99756.47;;;20.85;52.58
58686;BME280;44465;53.206;-6.106;2023-11-19T10:34:50;99780.00;;;20.92;52.66
58686;BME280;44465;53.206;-6.106;2023-11-19T10:37:28;99763.84;;;20.81;52.45
58686;BME280;44465;53.206;-6.106;2023-11-19T10:39:57;99792.63;;;20.90;52.51
58686;BME280;44465;53.206;-6.106;2023-11-19T10:42:23;99803.78;;;20.97;52.53
58686;BME280;44465;53.206;-6.106;2023-11-19T10:44:49;99778.84;;;20.84;52.52
58686;BME280;44465;53.206;-6.106;2023-11-19T10:47:15;99806.44;;;20.97;52.77
58686;BME280;44465;53.206;-6.106;2023-11-19T10:49:44;99819.06;;;20.95;52.75
58686;BME280;44465;53.206;-6.106;2023-11-19T10:52:11;99808.81;;;20.89;52.54
58686;BME280;44465;53.206;-6.106;2023-11-19T10:54:37;99811.25;;;20.92;52.89
58686;BME280;44465;53.206;-6.106;2023-11-19T10:57:09;99812.97;;;20.93;52.58
58686;BME280;44465;53.206;-6.106;2023-11-19T10:59:36;99833.97;;;20.99;52.88
58686;BME280;44465;53.206;-6.106;2023-11-19T11:02:03;99815.88;;;20.90;52.92
58686;BME280;44465;53.206;-6.106;2023-11-19T11:04:33;99833.97;;;20.99;52.90
58686;BME280;44465;53.206;-6.106;2023-11-19T11:07:01;99830.31;;;21.00;53.26
58686;BME280;44465;53.206;-6.106;2023-11-19T11:09:27;99833.41;;;20.94;52.97
58686;BME280;44465;53.206;-6.106;2023-11-19T11:11:54;99846.16;;;21.03;52.97
58686;BME280;44465;53.206;-6.106;2023-11-19T11:14:21;99851.75;;;21.00;53.07
58686;BME280;44465;53.206;-6.106;2023-11-19T11:16:48;99845.84;;;20.95;52.79
58686;BME280;44465;53.206;-6.106;2023-11-19T11:19:16;99853.22;;;21.04;52.86
58686;BME280;44465;53.206;-6.106;2023-11-19T11:21:44;99838.66;;;20.96;52.62
58686;BME280;44465;53.206;-6.106;2023-11-19T11:32:39;99870.25;;;21.03;53.47
58686;BME280;44465;53.206;-6.106;2023-11-19T11:37:46;99876.13;;;21.08;53.51
58686;BME280;44465;53.206;-6.106;2023-11-19T11:40:17;99893.28;;;21.19;53.48
58686;BME280;44465;53.206;-6.106;2023-11-19T11:42:44;99895.19;;;21.17;53.85
58686;BME280;44465;53.206;-6.106;2023-11-19T11:45:11;99883.84;;;21.13;53.73
58686;BME280;44465;53.206;-6.106;2023-11-19T11:50:20;99903.34;;;21.15;53.37
58686;BME280;44465;53.206;-6.106;2023-11-19T11:55:39;99909.75;;;21.13;53.60
58686;BME280;44465;53.206;-6.106;2023-11-19T11:58:29;99906.75;;;21.17;53.49
58686;BME280;44465;53.206;-6.106;2023-11-19T12:01:01;99907.94;;;21.13;53.50
58686;BME280;44465;53.206;-6.106;2023-11-19T12:03:28;99911.25;;;21.17;53.63
58686;BME280;44465;53.206;-6.106;2023-11-19T12:05:55;99904.94;;;21.18;53.54
58686;BME280;44465;53.206;-6.106;2023-11-19T12:08:25;99910.41;;;21.16;53.18
58686;BME280;44465;53.206;-6.106;2023-11-19T12:10:53;99916.50;;;21.18;53.54
58686;BME280;44465;53.206;-6.106;2023-11-19T12:13:20;99917.38;;;21.19;53.37
58686;BME280;44465;53.206;-6.106;2023-11-19T12:18:27;99915.34;;;21.10;53.49
58686;BME280;44465;53.206;-6.106;2023-11-19T12:23:19;99933.44;;;21.19;53.48
58686;BME280;44465;53.206;-6.106;2023-11-19T12:25:45;99933.44;;;21.19;53.40
58686;BME280;44465;53.206;-6.106;2023-11-19T12:28:14;99942.31;;;21.19;53.49
58686;BME280;44465;53.206;-6.106;2023-11-19T12:30:42;99938.88;;;21.17;53.29
58686;BME280;44465;53.206;-6.106;2023-11-19T12:33:12;99945.84;;;21.20;53.36
58686;BME280;44465;53.206;-6.106;2023-11-19T12:35:45;99945.09;;;21.18;53.27
58686;BME280;44465;53.206;-6.106;2023-11-19T12:38:20;99957.41;;;21.20;53.32
58686;BME280;44465;53.206;-6.106;2023-11-19T12:40:46;99956.66;;;21.18;52.91
58686;BME280;44465;53.206;-6.106;2023-11-19T12:43:21;99958.59;;;21.16;53.37
58686;BME280;44465;53.206;-6.106;2023-11-19T12:45:47;99973.59;;;21.19;53.40
58686;BME280;44465;53.206;-6.106;2023-11-19T12:48:13;99967.38;;;21.18;53.25
58686;BME280;44465;53.206;-6.106;2023-11-19T12:50:55;99975.31;;;21.20;53.29
58686;BME280;44465;53.206;-6.106;2023-11-19T12:53:23;99982.38;;;21.21;53.43
58686;BME280;44465;53.206;-6.106;2023-11-19T12:55:50;99976.78;;;21.11;53.81
58686;BME280;44465;53.206;-6.106;2023-11-19T13:01:07;100003.13;;;21.17;53.37
58686;BME280;44465;53.206;-6.106;2023-11-19T13:03:34;100010.84;;;21.22;53.27
58686;BME280;44465;53.206;-6.106;2023-11-19T13:06:06;100015.34;;;21.21;53.52
58686;BME280;44465;53.206;-6.106;2023-11-19T13:08:47;100019.88;;;21.21;53.20
58686;BME280;44465;53.206;-6.106;2023-11-19T13:11:35;100022.00;;;21.16;53.13
58686;BME280;44465;53.206;-6.106;2023-11-19T13:14:06;100022.75;;;21.18;53.34
58686;BME280;44465;53.206;-6.106;2023-11-19T13:16:36;100004.84;;;21.05;53.18
58686;BME280;44465;53.206;-6.106;2023-11-19T13:19:02;100040.53;;;21.19;53.16
58686;BME280;44465;53.206;-6.106;2023-11-19T13:21:28;100038.06;;;21.16;53.18
58686;BME280;44465;53.206;-6.106;2023-11-19T13:23:55;100038.06;;;21.16;53.18
58686;BME280;44465;53.206;-6.106;2023-11-19T13:26:21;100051.13;;;21.20;53.33
58686;BME280;44465;53.206;-6.106;2023-11-19T13:28:46;100058.41;;;21.18;53.20